Terminal Aerodrome Forecast
Issued by NWS Portland, ME

Home | Current Version | Previous Version | Text Only | Print | Product List | Glossary On
Versions: 1 2 3 4 5 6 7 8 9 10 11 12 13 14 15 16 17 18 19
000
FTUS41 KGYX 250102 AAA
TAFPWM
TAF AMD
KPWM 250102Z 2501/2524 33006KT 3SM RA BR OVC005
     FM250400 20003KT 1/2SM -RA FG OVC001 WS020/20045KT
     FM250900 21007KT 1 1/2SM -RA BR OVC003 WS020/20045KT
     FM251500 26015G30KT P6SM BKN050 OVC100=

USA.gov is the U.S. government's official web portal to all federal, state and local government web resources and services.